Time;durP1;ratioP1;P1;durP2;ratioP2;P2;SDS_P1;SDS_P2;PMS_P1;PMS_P2;Temp;Humidity;BMP_temperature;BMP_pressure;BME280_temperature;BME280_humidity;BME280_pressure;Samples;Min_cycle;Max_cycle;Signal;HPM_P1;HPM_P2
2023/03/16 00:02:05;;;;;;;2.03;0.80;;;;;;;9.23;100.00;99156.63;5049584;28;20316;-43
2023/03/16 00:04:36;;;;;;;0.95;0.80;;;;;;;9.22;100.00;99150.28;5049051;28;20074;-43
2023/03/16 00:07:08;;;;;;;2.27;1.60;;;;;;;9.21;100.00;99147.91;5031727;28;20041;-43
2023/03/16 00:09:39;;;;;;;3.30;2.30;;;;;;;9.22;100.00;99146.72;5050106;28;20107;-43
2023/03/16 00:12:14;;;;;;;3.87;3.00;;;;;;;9.21;100.00;99139.63;5049653;28;20086;-43
2023/03/16 00:14:43;;;;;;;4.25;2.15;;;;;;;9.19;100.00;99140.78;5050113;28;20073;-42
2023/03/16 00:17:18;;;;;;;9.45;6.38;;;;;;;9.21;100.00;99131.34;5036765;28;20151;-48
2023/03/16 00:19:53;;;;;;;13.55;5.60;;;;;;;9.21;100.00;99123.88;5032008;28;20045;-42
2023/03/16 00:22:26;;;;;;;7.57;5.95;;;;;;;9.19;100.00;99132.50;5049351;28;20049;-42
2023/03/16 00:24:53;;;;;;;9.15;4.75;;;;;;;9.17;100.00;99132.09;5046662;28;20088;-48
2023/03/16 00:27:22;;;;;;;8.77;4.07;;;;;;;9.15;100.00;99131.69;5050006;28;20453;-48
2023/03/16 00:29:54;;;;;;;3.17;1.23;;;;;;;9.17;100.00;99125.78;5045326;28;20087;-42
2023/03/16 00:32:27;;;;;;;0.60;0.60;;;;;;;9.18;100.00;99117.13;5049234;28;20052;-43
2023/03/16 00:34:54;;;;;;;0.43;0.43;;;;;;;9.24;100.00;99116.81;5049160;28;20048;-43
2023/03/16 00:37:22;;;;;;;0.82;0.55;;;;;;;9.27;100.00;99118.78;5049552;28;20063;-43
2023/03/16 00:39:50;;;;;;;0.52;0.47;;;;;;;9.30;100.00;99123.56;5048422;28;20081;-43
2023/03/16 00:42:18;;;;;;;0.43;0.20;;;;;;;9.32;100.00;99110.97;5049727;28;20041;-43
2023/03/16 00:44:45;;;;;;;1.42;0.13;;;;;;;9.35;100.00;99112.19;5049122;28;20144;-44
2023/03/16 00:47:13;;;;;;;0.32;0.20;;;;;;;9.36;100.00;99120.09;5049510;28;20041;-43
2023/03/16 00:49:43;;;;;;;0.10;0.10;;;;;;;9.39;100.00;99124.06;5048848;28;20049;-43
2023/03/16 00:52:14;;;;;;;0.20;0.20;;;;;;;9.40;100.00;99115.41;5049166;28;20049;-52
2023/03/16 00:54:42;;;;;;;0.20;0.20;;;;;;;9.42;100.00;99109.53;5049101;28;20124;-43
2023/03/16 00:57:11;;;;;;;0.75;0.17;;;;;;;9.45;100.00;99111.53;5048091;28;20411;-47
2023/03/16 00:59:38;;;;;;;1.23;0.30;;;;;;;9.46;100.00;99107.56;5049311;28;20048;-43
2023/03/16 01:02:06;;;;;;;0.40;0.30;;;;;;;9.47;100.00;99106.41;5048762;28;20415;-43
2023/03/16 01:04:35;;;;;;;0.82;0.22;;;;;;;9.46;100.00;99099.28;5048701;28;20033;-45
2023/03/16 01:07:05;;;;;;;0.38;0.30;;;;;;;9.46;100.00;99102.06;5048666;28;20453;-43
2023/03/16 01:09:35;;;;;;;0.30;0.30;;;;;;;9.49;100.00;99093.00;5048613;28;20037;-45
2023/03/16 01:12:09;;;;;;;0.50;0.50;;;;;;;9.49;100.00;99081.97;5049116;28;20044;-44
2023/03/16 01:14:36;;;;;;;0.35;0.20;;;;;;;9.48;100.00;99091.41;5047748;28;20047;-43
2023/03/16 01:17:07;;;;;;;0.20;0.10;;;;;;;9.48;100.00;99080.38;5047953;28;20478;-45
2023/03/16 01:19:36;;;;;;;0.00;0.00;;;;;;;9.49;100.00;99070.91;5048683;28;20052;-48
2023/03/16 01:22:08;;;;;;;0.25;0.10;;;;;;;9.51;100.00;99079.63;5049058;28;20047;-43
2023/03/16 01:24:36;;;;;;;0.05;0.00;;;;;;;9.52;100.00;99072.94;5044893;28;20134;-44
2023/03/16 01:27:04;;;;;;;0.10;0.10;;;;;;;9.53;100.00;99069.78;5047938;28;20053;-47
2023/03/16 01:29:31;;;;;;;0.35;0.30;;;;;;;9.53;100.00;99069.00;5047677;28;20449;-43
2023/03/16 01:32:00;;;;;;;0.10;0.10;;;;;;;9.54;100.00;99067.81;5047958;28;20048;-44
2023/03/16 01:34:27;;;;;;;0.13;0.13;;;;;;;9.54;100.00;99073.34;5049026;28;20057;-43
2023/03/16 01:36:54;;;;;;;0.25;0.13;;;;;;;9.52;100.00;99062.69;5048469;28;20406;-43
2023/03/16 01:39:21;;;;;;;1.55;0.17;;;;;;;9.52;100.00;99059.13;5048298;28;20064;-45
2023/03/16 01:41:48;;;;;;;0.10;0.10;;;;;;;9.55;100.00;99052.84;5035255;28;20434;-45
2023/03/16 01:44:18;;;;;;;0.00;0.00;;;;;;;9.55;100.00;99050.06;5048552;28;20128;-43
2023/03/16 01:46:46;;;;;;;0.00;0.00;;;;;;;9.55;100.00;99048.09;5047721;28;20033;-49
2023/03/16 01:49:15;;;;;;;0.05;0.00;;;;;;;9.55;100.00;99042.59;5048256;28;20052;-46
2023/03/16 01:51:42;;;;;;;0.00;0.00;;;;;;;9.55;100.00;99030.72;5048233;28;20055;-43
2023/03/16 01:54:18;;;;;;;0.75;0.05;;;;;;;9.55;100.00;99041.78;5048411;28;20528;-43
2023/03/16 01:57:14;;;;;;;0.63;0.10;;;;;;;9.55;100.00;99036.25;5048281;28;20475;-43
2023/03/16 01:59:48;;;;;;;0.80;0.10;;;;;;;9.55;100.00;99016.91;5043289;28;20076;-51
2023/03/16 02:02:20;;;;;;;0.32;0.15;;;;;;;9.56;100.00;99033.09;5048209;28;20399;-43
2023/03/16 02:05:05;;;;;;;;;;;;;;;9.56;100.00;99026.78;5047808;28;20059;-43
2023/03/16 02:07:43;;;;;;;0.10;0.10;;;;;;;9.57;100.00;99031.13;5047829;28;19920;-44
2023/03/16 02:10:13;;;;;;;0.30;0.20;;;;;;;9.56;100.00;99016.53;5047826;28;20502;-44
2023/03/16 02:12:40;;;;;;;1.80;0.20;;;;;;;9.56;100.00;99033.09;5035296;28;20111;-44
2023/03/16 02:15:07;;;;;;;1.40;0.10;;;;;;;9.58;100.00;99025.22;5046607;28;20445;-43
2023/03/16 02:17:35;;;;;;;0.20;0.10;;;;;;;9.62;100.00;99025.25;5048107;28;20049;-43
2023/03/16 02:20:04;;;;;;;0.57;0.13;;;;;;;9.63;100.00;99027.66;5047865;28;20384;-44
2023/03/16 02:22:35;;;;;;;0.57;0.20;;;;;;;9.65;100.00;99024.50;5046986;28;20053;-43
2023/03/16 02:25:02;;;;;;;0.88;0.40;;;;;;;9.66;100.00;99018.59;5043073;28;20037;-43
2023/03/16 02:27:40;;;;;;;3.58;0.45;;;;;;;9.69;100.00;99011.50;5048470;28;20088;-43
2023/03/16 02:30:12;;;;;;;2.47;0.32;;;;;;;9.70;100.00;99016.66;5048149;28;20056;-43
2023/03/16 02:32:40;;;;;;;1.90;0.43;;;;;;;9.72;100.00;99002.47;5047766;28;20045;-43
2023/03/16 02:35:07;;;;;;;1.65;0.38;;;;;;;9.74;100.00;98997.38;5048556;28;20037;-43
2023/03/16 02:37:35;;;;;;;4.78;0.70;;;;;;;9.76;100.00;98992.25;5050285;28;20049;-43
2023/03/16 02:40:15;;;;;;;2.78;0.60;;;;;;;9.76;100.00;98997.78;5051189;28;20458;-44
2023/03/16 02:42:42;;;;;;;4.03;0.65;;;;;;;9.76;100.00;98993.03;5051650;28;20553;-43
2023/03/16 02:45:09;;;;;;;4.28;0.77;;;;;;;9.76;100.00;98983.94;5051484;28;20128;-50
2023/03/16 02:47:44;;;;;;;2.03;0.50;;;;;;;9.75;100.00;98980.38;5051113;28;20053;-43
2023/03/16 02:50:11;;;;;;;4.03;0.57;;;;;;;9.76;100.00;98987.50;5051340;28;20049;-42
2023/03/16 02:52:38;;;;;;;6.00;0.85;;;;;;;9.76;100.00;98986.72;5051098;28;20060;-43
2023/03/16 02:55:06;;;;;;;6.07;2.75;;;;;;;9.77;100.00;98988.28;5050726;28;20057;-43
2023/03/16 02:57:33;;;;;;;4.53;1.02;;;;;;;9.78;100.00;98992.66;5051061;28;20076;-43
2023/03/16 03:00:00;;;;;;;3.88;0.70;;;;;;;9.79;100.00;98997.00;5050967;28;20041;-43
2023/03/16 03:02:26;;;;;;;3.55;0.60;;;;;;;9.80;100.00;98993.06;5126293;22;20418;-43
2023/03/16 03:04:54;;;;;;;2.28;0.50;;;;;;;9.81;100.00;98983.59;5071338;28;20044;-46
2023/03/16 03:07:21;;;;;;;6.35;0.52;;;;;;;9.82;100.00;98985.19;5070965;28;20051;-43
2023/03/16 03:09:47;;;;;;;4.40;1.08;;;;;;;9.82;100.00;98996.25;5071043;28;20052;-43
2023/03/16 03:12:14;;;;;;;2.70;0.68;;;;;;;9.82;100.00;98985.19;5066506;28;20040;-47
2023/03/16 03:14:41;;;;;;;5.13;0.90;;;;;;;9.83;100.00;98984.00;5070798;28;20484;-43
2023/03/16 03:17:09;;;;;;;3.75;0.70;;;;;;;9.83;100.00;98981.22;5069542;28;20371;-48
2023/03/16 03:19:36;;;;;;;2.15;0.68;;;;;;;9.83;100.00;98975.72;5070729;28;20169;-43
2023/03/16 03:22:05;;;;;;;2.20;0.20;;;;;;;9.86;100.00;98979.69;5070378;28;20433;-43
2023/03/16 03:24:33;;;;;;;0.30;0.20;;;;;;;9.87;100.00;98981.28;5068112;28;20062;-48
2023/03/16 03:27:04;;;;;;;4.78;0.32;;;;;;;9.86;100.00;98983.25;5069474;28;20056;-45
2023/03/16 03:29:35;;;;;;;2.75;0.50;;;;;;;9.85;100.00;98967.06;5060364;28;20147;-46
2023/03/16 03:32:05;;;;;;;2.38;0.55;;;;;;;9.85;100.00;98967.81;5068626;28;20059;-43
2023/03/16 03:34:32;;;;;;;3.67;0.68;;;;;;;9.84;100.00;98957.97;5070104;28;20410;-43
2023/03/16 03:36:58;;;;;;;3.03;0.40;;;;;;;9.84;100.00;98965.44;5063242;28;20059;-43
2023/03/16 03:39:25;;;;;;;2.67;0.95;;;;;;;9.85;100.00;98964.28;5063938;28;20047;-43
2023/03/16 03:41:54;;;;;;;2.40;0.35;;;;;;;9.84;100.00;98949.66;5070168;28;20493;-43
2023/03/16 03:44:21;;;;;;;0.63;0.35;;;;;;;9.86;100.00;98940.97;5070198;28;20055;-44
2023/03/16 03:46:48;;;;;;;3.53;0.40;;;;;;;9.85;100.00;98939.41;5065531;28;20106;-43
2023/03/16 03:49:17;;;;;;;2.50;0.30;;;;;;;9.83;100.00;98942.53;5070156;28;20058;-42
2023/03/16 03:51:45;;;;;;;2.95;0.68;;;;;;;9.84;100.00;98933.09;5070204;28;20055;-43
2023/03/16 03:54:12;;;;;;;2.00;0.30;;;;;;;9.85;100.00;98939.41;5070080;28;20653;-43
2023/03/16 03:56:39;;;;;;;3.28;0.43;;;;;;;9.85;100.00;98934.66;5069806;28;20040;-45
2023/03/16 03:59:06;;;;;;;6.75;2.97;;;;;;;9.85;100.00;98951.22;5070105;28;20056;-43
2023/03/16 04:01:32;;;;;;;4.53;0.40;;;;;;;9.86;100.00;98952.03;5060523;28;20052;-43
2023/03/16 04:03:59;;;;;;;1.48;0.30;;;;;;;9.84;100.00;98938.63;5054619;28;20532;-43
2023/03/16 04:06:26;;;;;;;5.10;0.60;;;;;;;9.83;100.00;98931.50;5069903;28;20041;-43
2023/03/16 04:08:53;;;;;;;2.97;0.45;;;;;;;9.83;100.00;98920.44;5069742;28;20048;-43
2023/03/16 04:11:20;;;;;;;1.67;0.50;;;;;;;9.85;100.00;98911.78;5069508;28;20045;-44
2023/03/16 04:13:47;;;;;;;0.90;0.35;;;;;;;9.86;100.00;98896.75;5069280;28;20045;-43
2023/03/16 04:16:15;;;;;;;3.53;1.52;;;;;;;9.85;100.00;98901.47;5068909;28;20044;-43
2023/03/16 04:18:42;;;;;;;3.63;0.50;;;;;;;9.83;100.00;98898.31;5069698;28;20067;-42
2023/03/16 04:21:14;;;;;;;1.98;0.50;;;;;;;9.84;100.00;98905.44;5065147;28;20048;-43
2023/03/16 04:23:42;;;;;;;4.57;0.90;;;;;;;9.85;100.00;98895.97;5069359;28;20052;-43
2023/03/16 04:26:09;;;;;;;1.98;0.35;;;;;;;9.83;100.00;98895.56;5065985;28;20071;-43
2023/03/16 04:28:36;;;;;;;2.20;0.60;;;;;;;9.87;100.00;98898.34;5069606;28;20036;-48
2023/03/16 04:31:05;;;;;;;4.18;0.75;;;;;;;9.86;100.00;98885.69;5069689;28;20041;-43
2023/03/16 04:33:34;;;;;;;2.28;0.52;;;;;;;9.87;100.00;98879.81;5051564;28;20075;-50
2023/03/16 04:36:01;;;;;;;3.60;0.50;;;;;;;9.87;100.00;98871.50;5069483;28;20045;-43
2023/03/16 04:38:29;;;;;;;2.53;0.57;;;;;;;9.88;100.00;98886.09;5057037;28;20048;-43
2023/03/16 04:40:57;;;;;;;4.05;1.20;;;;;;;9.88;100.00;98888.88;5069825;28;20106;-45
2023/03/16 04:43:24;;;;;;;5.18;0.60;;;;;;;9.87;100.00;98885.34;5042777;28;20043;-43
2023/03/16 04:45:50;;;;;;;7.35;0.73;;;;;;;9.88;100.00;98873.06;5069053;28;20059;-43
2023/03/16 04:48:17;;;;;;;3.13;0.98;;;;;;;9.88;100.00;98866.75;5055969;28;20097;-46
2023/03/16 04:50:46;;;;;;;3.70;1.05;;;;;;;9.90;100.00;98867.19;5069172;28;20056;-47
2023/03/16 04:53:12;;;;;;;1.90;0.40;;;;;;;9.91;100.00;98877.03;5068992;28;20404;-43
2023/03/16 04:55:40;;;;;;;2.97;0.68;;;;;;;9.93;100.00;98881.00;5063027;28;20044;-48
2023/03/16 04:58:07;;;;;;;2.10;0.93;;;;;;;9.95;100.00;98856.56;5068834;28;20041;-43
2023/03/16 05:00:33;;;;;;;4.07;0.60;;;;;;;9.95;100.00;98867.63;5050794;28;20511;-47
2023/03/16 05:03:01;;;;;;;2.42;0.40;;;;;;;9.97;100.00;98865.25;5068504;28;20117;-46
2023/03/16 05:05:28;;;;;;;2.40;0.40;;;;;;;9.96;100.00;98862.84;5068596;28;20049;-43
2023/03/16 05:07:55;;;;;;;0.55;0.50;;;;;;;9.96;100.00;98860.88;5068810;28;20053;-43
2023/03/16 05:10:22;;;;;;;2.28;0.40;;;;;;;9.99;100.00;98860.13;5068088;28;20056;-43
2023/03/16 05:12:49;;;;;;;4.85;0.35;;;;;;;10.00;100.00;98847.91;5046014;28;20133;-44
2023/03/16 05:15:15;;;;;;;2.97;0.60;;;;;;;10.02;100.00;98861.31;5066809;28;20601;-43
2023/03/16 05:17:42;;;;;;;1.88;0.30;;;;;;;10.02;100.00;98862.13;5068512;28;20044;-43
2023/03/16 05:20:13;;;;;;;3.13;1.15;;;;;;;10.03;100.00;98857.38;5050557;28;20454;-50
2023/03/16 05:22:51;;;;;;;;;;;;;;;10.02;100.00;98873.16;5069566;28;20121;-47
2023/03/16 05:25:19;;;;;;;3.13;0.50;;;;;;;10.02;100.00;98870.41;5046140;28;19931;-45
2023/03/16 05:27:48;;;;;;;1.63;0.15;;;;;;;10.04;100.00;98843.16;5065060;28;20087;-44
2023/03/16 05:30:16;;;;;;;0.82;0.30;;;;;;;10.06;100.00;98853.84;5067176;28;20041;-43
2023/03/16 05:32:43;;;;;;;0.85;0.30;;;;;;;10.05;100.00;98849.47;5068598;28;20410;-43
2023/03/16 05:35:12;;;;;;;3.60;0.80;;;;;;;10.05;100.00;98860.53;5068574;28;20521;-50
2023/03/16 05:37:40;;;;;;;1.25;0.20;;;;;;;10.08;100.00;98862.53;5068520;28;20439;-44
2023/03/16 05:40:13;;;;;;;3.70;1.38;;;;;;;10.07;100.00;98858.97;5068489;28;20072;-44
2023/03/16 05:42:39;;;;;;;1.65;0.30;;;;;;;10.08;100.00;98849.50;5068185;28;20224;-44
2023/03/16 05:45:07;;;;;;;1.65;0.32;;;;;;;10.07;100.00;98847.91;5061452;28;20120;-43
2023/03/16 05:47:36;;;;;;;0.82;0.38;;;;;;;10.06;100.00;98837.25;5062301;28;20052;-44
2023/03/16 05:50:04;;;;;;;0.55;0.32;;;;;;;10.06;100.00;98843.56;5068276;28;20045;-44
2023/03/16 05:52:32;;;;;;;1.00;0.20;;;;;;;10.05;100.00;98838.44;5068276;28;20541;-43
2023/03/16 05:54:59;;;;;;;0.93;0.25;;;;;;;10.03;100.00;98835.25;5068551;28;20044;-44
2023/03/16 05:57:26;;;;;;;0.20;0.20;;;;;;;10.02;100.00;98828.94;5067969;28;20084;-47
2023/03/16 05:59:53;;;;;;;1.15;0.30;;;;;;;10.01;100.00;98832.88;5068421;28;20040;-43
2023/03/16 06:02:20;;;;;;;0.65;0.10;;;;;;;10.01;100.00;98835.63;5044290;28;20079;-43
2023/03/16 06:04:46;;;;;;;1.27;0.80;;;;;;;10.02;100.00;98844.72;5068038;28;20044;-45
2023/03/16 06:07:13;;;;;;;0.10;0.10;;;;;;;10.01;100.00;98830.09;5050110;28;20060;-44
2023/03/16 06:09:40;;;;;;;2.15;0.20;;;;;;;10.02;100.00;98828.94;5068681;28;20375;-43
2023/03/16 06:12:06;;;;;;;0.15;0.13;;;;;;;10.04;100.00;98826.56;5072188;28;20068;-44
2023/03/16 06:14:33;;;;;;;0.38;0.20;;;;;;;10.04;100.00;98820.25;5071983;28;20063;-43
2023/03/16 06:17:00;;;;;;;1.90;0.63;;;;;;;10.02;100.00;98820.66;5070625;28;20037;-44
2023/03/16 06:19:26;;;;;;;1.25;0.25;;;;;;;10.01;100.00;98816.28;5062340;28;20045;-46
2023/03/16 06:21:53;;;;;;;3.15;0.20;;;;;;;10.00;100.00;98800.91;5068622;28;20032;-43
2023/03/16 06:24:20;;;;;;;0.75;0.10;;;;;;;9.99;100.00;98807.59;5070890;28;20131;-46
2023/03/16 06:26:46;;;;;;;0.55;0.20;;;;;;;9.97;100.00;98792.56;5068611;28;20047;-42
2023/03/16 06:29:13;;;;;;;0.28;0.10;;;;;;;9.96;100.00;98783.47;5071737;28;20062;-43
2023/03/16 06:31:40;;;;;;;1.55;0.00;;;;;;;9.96;100.00;98777.97;5051731;28;20490;-43
2023/03/16 06:34:07;;;;;;;1.88;0.10;;;;;;;9.95;100.00;98765.34;5072016;28;20048;-42
2023/03/16 06:36:34;;;;;;;0.63;0.20;;;;;;;9.95;100.00;98761.78;5064442;28;20128;-42
2023/03/16 06:39:00;;;;;;;0.35;0.10;;;;;;;9.96;100.00;98747.56;5071193;28;20343;-43
2023/03/16 06:41:27;;;;;;;0.52;0.47;;;;;;;9.98;100.00;98750.72;5071041;28;20061;-42
2023/03/16 06:43:54;;;;;;;0.80;0.08;;;;;;;9.99;100.00;98763.38;5071490;28;20052;-42
2023/03/16 06:46:20;;;;;;;2.03;0.10;;;;;;;10.04;100.00;98781.53;5070818;28;20033;-42
2023/03/16 06:48:47;;;;;;;0.75;0.05;;;;;;;10.06;100.00;98791.03;5071505;28;20143;-43
2023/03/16 06:51:14;;;;;;;1.35;0.08;;;;;;;10.09;100.00;98797.75;5070999;28;20493;-43
2023/03/16 06:53:42;;;;;;;0.25;0.15;;;;;;;10.11;100.00;98787.88;5060162;28;20072;-43
2023/03/16 06:56:09;;;;;;;0.05;0.05;;;;;;;10.13;100.00;98785.56;5069003;28;20490;-42
2023/03/16 06:58:35;;;;;;;1.27;0.20;;;;;;;10.14;100.00;98791.91;5070844;28;20080;-43
2023/03/16 07:01:03;;;;;;;14.73;1.45;;;;;;;10.14;100.00;98789.13;5070900;28;20044;-45
2023/03/16 07:03:30;;;;;;;2.05;0.10;;;;;;;10.15;100.00;98799.78;5071204;28;20084;-43
2023/03/16 07:05:57;;;;;;;1.92;0.20;;;;;;;10.17;100.00;98797.44;5070781;28;20067;-43
2023/03/16 07:08:23;;;;;;;0.30;0.30;;;;;;;10.20;100.00;98790.31;5070726;28;20047;-45
2023/03/16 07:10:51;;;;;;;0.90;0.10;;;;;;;10.23;100.00;98773.75;5063227;28;20064;-43
2023/03/16 07:13:17;;;;;;;0.85;0.20;;;;;;;10.25;100.00;98776.91;5071294;28;20060;-48
2023/03/16 07:15:44;;;;;;;0.65;0.10;;;;;;;10.23;100.00;98782.03;5069234;28;20048;-42
2023/03/16 07:18:11;;;;;;;0.22;0.03;;;;;;;10.22;100.00;98769.38;5070692;28;20059;-48
2023/03/16 07:20:37;;;;;;;0.10;0.10;;;;;;;10.21;100.00;98778.88;5052539;28;20452;-42
2023/03/16 07:23:04;;;;;;;0.00;0.00;;;;;;;10.20;100.00;98777.28;5053085;28;20139;-42
2023/03/16 07:25:31;;;;;;;0.30;0.10;;;;;;;10.18;100.00;98778.88;5066479;28;20036;-41
2023/03/16 07:27:57;;;;;;;0.85;0.10;;;;;;;10.16;100.00;98773.72;5056961;28;20056;-43
2023/03/16 07:30:24;;;;;;;1.13;0.17;;;;;;;10.16;100.00;98795.84;5070277;28;20044;-42
2023/03/16 07:32:51;;;;;;;0.25;0.17;;;;;;;10.15;100.00;98794.25;5070695;28;20532;-43
2023/03/16 07:35:19;;;;;;;0.13;0.10;;;;;;;10.16;100.00;98790.34;5071271;28;20108;-46
2023/03/16 07:37:45;;;;;;;0.85;0.08;;;;;;;10.16;100.00;98790.34;5070375;28;20045;-42
2023/03/16 07:40:13;;;;;;;0.00;0.00;;;;;;;10.17;100.00;98791.91;5070431;28;20155;-47
2023/03/16 07:42:39;;;;;;;0.08;0.00;;;;;;;10.19;100.00;98802.59;5070194;28;20102;-46
2023/03/16 07:45:07;;;;;;;0.00;0.00;;;;;;;10.21;100.00;98806.53;5063764;28;20049;-42
2023/03/16 07:47:34;;;;;;;0.10;0.00;;;;;;;10.23;100.00;98806.13;5052630;28;20044;-42
2023/03/16 07:50:01;;;;;;;2.05;0.10;;;;;;;10.24;100.00;98811.28;5070090;28;20045;-42
2023/03/16 07:52:27;;;;;;;0.05;0.00;;;;;;;10.26;100.00;98811.69;5070461;28;20125;-42
2023/03/16 07:54:54;;;;;;;0.00;0.00;;;;;;;10.28;100.00;98803.78;5070248;28;20052;-42
2023/03/16 07:57:21;;;;;;;0.03;0.00;;;;;;;10.28;100.00;98806.56;5070724;28;20037;-46
2023/03/16 07:59:48;;;;;;;0.10;0.00;;;;;;;10.29;100.00;98813.69;5070037;28;20494;-42
2023/03/16 08:02:17;;;;;;;0.45;0.00;;;;;;;10.30;100.00;98806.94;5056174;28;20057;-42
2023/03/16 08:04:45;;;;;;;0.52;0.03;;;;;;;10.33;100.00;98797.88;5052156;28;20153;-43
2023/03/16 08:07:13;;;;;;;0.20;0.08;;;;;;;10.36;100.00;98805.41;5069717;28;20036;-43
2023/03/16 08:09:40;;;;;;;0.00;0.00;;;;;;;10.41;100.00;98815.28;5070444;28;20053;-42
2023/03/16 08:12:08;;;;;;;0.43;0.10;;;;;;;10.46;100.00;98805.84;5069685;28;20075;-43
2023/03/16 08:14:36;;;;;;;0.45;0.10;;;;;;;10.50;100.00;98804.66;5070207;28;20476;-43
2023/03/16 08:17:04;;;;;;;2.72;0.10;;;;;;;10.54;100.00;98810.19;5068980;28;20052;-44
2023/03/16 08:19:31;;;;;;;0.30;0.03;;;;;;;10.61;100.00;98808.22;5062130;28;20052;-48
2023/03/16 08:22:00;;;;;;;0.38;0.00;;;;;;;10.72;100.00;98799.94;5069455;28;20048;-43
2023/03/16 08:24:28;;;;;;;0.32;0.10;;;;;;;10.86;100.00;98775.84;5067476;28;20486;-46
2023/03/16 08:26:56;;;;;;;0.10;0.10;;;;;;;10.98;100.00;98780.19;5068634;28;20052;-44
2023/03/16 08:29:24;;;;;;;0.22;0.00;;;;;;;11.09;100.00;98792.06;5069312;28;20052;-44
2023/03/16 08:31:56;;;;;;;0.00;0.00;;;;;;;11.17;100.00;98788.13;5069609;28;20056;-43
2023/03/16 08:34:23;;;;;;;1.50;0.40;;;;;;;11.27;100.00;98800.38;5068241;28;20102;-42
2023/03/16 08:36:50;;;;;;;0.38;0.10;;;;;;;11.36;100.00;98790.44;5069040;28;20047;-43
2023/03/16 08:39:17;;;;;;;0.68;0.32;;;;;;;11.43;100.00;98790.47;5069046;28;20044;-43
2023/03/16 08:41:44;;;;;;;0.47;0.13;;;;;;;11.46;100.00;98805.50;5068718;28;20506;-43
2023/03/16 08:44:11;;;;;;;9.20;3.80;;;;;;;11.49;100.00;98810.25;5068983;28;20037;-46
2023/03/16 08:46:39;;;;;;;0.43;0.10;;;;;;;11.46;100.00;98809.03;5055848;28;20048;-43
2023/03/16 08:49:07;;;;;;;1.08;0.63;;;;;;;11.44;100.00;98807.84;5068803;28;20040;-46
2023/03/16 08:51:34;;;;;;;0.32;0.10;;;;;;;11.42;100.00;98804.69;5066721;28;20040;-44
2023/03/16 08:54:03;;;;;;;1.35;0.00;;;;;;;11.40;100.00;98805.09;5063549;28;20417;-48
2023/03/16 08:56:31;;;;;;;0.35;0.20;;;;;;;11.39;100.00;98800.75;5069408;28;20045;-42
2023/03/16 08:58:58;;;;;;;0.45;0.10;;;;;;;11.39;100.00;98795.19;5068503;28;20059;-42
2023/03/16 09:01:25;;;;;;;0.65;0.10;;;;;;;11.41;100.00;98808.69;5068750;28;20044;-42
2023/03/16 09:03:52;;;;;;;2.55;0.15;;;;;;;11.48;100.00;98801.13;5050283;28;20056;-42
2023/03/16 09:06:19;;;;;;;0.13;0.13;;;;;;;11.59;100.00;98799.16;5068541;28;20553;-42
2023/03/16 09:08:46;;;;;;;0.88;0.17;;;;;;;11.70;100.00;98812.22;5067143;28;20063;-43
2023/03/16 09:11:16;;;;;;;0.65;0.10;;;;;;;11.81;100.00;98808.22;5068731;28;20054;-49
2023/03/16 09:13:43;;;;;;;0.55;0.30;;;;;;;11.95;100.00;98810.16;5068163;28;20130;-44
2023/03/16 09:16:11;;;;;;;0.15;0.15;;;;;;;12.08;100.00;98819.63;5050254;28;20076;-42
2023/03/16 09:18:39;;;;;;;0.85;0.20;;;;;;;12.21;100.00;98816.00;5068410;28;20041;-43
2023/03/16 09:21:09;;;;;;;0.10;0.00;;;;;;;12.36;100.00;98819.50;5068278;28;20044;-43
2023/03/16 09:23:40;;;;;;;0.55;0.10;;;;;;;12.45;100.00;98817.06;5068197;28;20036;-48
2023/03/16 09:26:08;;;;;;;0.45;0.13;;;;;;;12.39;100.00;98815.91;5057767;28;20044;-43
2023/03/16 09:28:37;;;;;;;0.20;0.10;;;;;;;12.29;100.00;98819.53;5067003;28;20124;-43
2023/03/16 09:31:05;;;;;;;0.10;0.10;;;;;;;12.19;100.00;98814.81;5068214;28;20486;-43
2023/03/16 09:33:33;;;;;;;0.40;0.30;;;;;;;12.14;100.00;98812.47;5066750;28;20390;-43
2023/03/16 09:36:00;;;;;;;0.00;0.00;;;;;;;12.26;100.00;98806.47;5068003;28;20040;-43
2023/03/16 09:38:27;;;;;;;0.30;0.10;;;;;;;12.95;100.00;98813.97;5068093;28;20078;-43
2023/03/16 09:41:01;;;;;;;0.80;0.20;;;;;;;13.62;100.00;98805.91;5068081;28;20044;-42
2023/03/16 09:43:37;;;;;;;1.17;0.00;;;;;;;14.98;100.00;98818.53;5045731;28;20043;-43
2023/03/16 09:46:06;;;;;;;0.13;0.10;;;;;;;16.18;100.00;98830.38;5071228;28;20046;-43
2023/03/16 09:48:36;;;;;;;1.95;0.20;;;;;;;16.82;97.64;98829.88;5072604;28;20056;-43
2023/03/16 09:51:06;;;;;;;0.35;0.25;;;;;;;16.54;96.63;98821.31;5072286;28;20518;-43
2023/03/16 09:53:37;;;;;;;1.25;0.10;;;;;;;16.87;97.11;98820.16;5072733;28;20052;-43
2023/03/16 09:56:21;;;;;;;0.05;0.05;;;;;;;17.36;95.40;98827.41;5053999;28;20044;-44
2023/03/16 09:58:48;;;;;;;1.75;0.10;;;;;;;17.34;92.47;98829.81;5071722;28;20532;-46
2023/03/16 10:01:42;;;;;;;0.35;0.10;;;;;;;17.17;94.35;98817.06;5063701;28;20048;-46
2023/03/16 10:04:15;;;;;;;0.65;0.20;;;;;;;17.32;90.27;98820.31;5072026;28;20044;-50
2023/03/16 10:06:53;;;;;;;0.32;0.20;;;;;;;17.08;90.13;98835.69;5072441;28;20052;-43
2023/03/16 10:09:22;;;;;;;0.30;0.00;;;;;;;16.73;88.66;98821.28;5046717;28;20044;-43
2023/03/16 10:11:55;;;;;;;1.08;0.10;;;;;;;16.58;89.01;98817.22;5072158;28;20040;-43
2023/03/16 10:14:29;;;;;;;0.25;0.10;;;;;;;16.36;88.12;98825.22;5072184;28;20049;-43
2023/03/16 10:17:13;;;;;;;0.05;0.05;;;;;;;15.66;87.54;98818.25;5069463;28;20044;-43
2023/03/16 10:19:46;;;;;;;1.08;0.10;;;;;;;15.04;88.64;98800.13;5072063;28;20055;-43
2023/03/16 10:22:25;;;;;;;0.98;0.20;;;;;;;14.77;90.64;98804.94;5071958;28;20128;-43
2023/03/16 10:25:07;;;;;;;0.17;0.10;;;;;;;14.82;89.79;98803.66;5068377;28;20053;-46
2023/03/16 10:27:37;;;;;;;1.55;0.15;;;;;;;15.25;88.46;98812.91;5071796;28;20056;-43
2023/03/16 10:30:13;;;;;;;0.32;0.08;;;;;;;15.45;87.34;98804.63;5072040;28;20052;-47
2023/03/16 10:32:40;;;;;;;0.75;0.15;;;;;;;15.67;86.83;98803.09;5072182;28;20091;-43
2023/03/16 10:35:27;;;;;;;0.32;0.10;;;;;;;16.37;84.82;98796.09;5062027;28;20048;-43
2023/03/16 10:37:55;;;;;;;0.52;0.03;;;;;;;16.88;81.64;98800.19;5055323;28;20711;-44
2023/03/16 10:40:22;;;;;;;0.00;0.00;;;;;;;17.71;79.14;98796.97;5071744;28;20075;-46
2023/03/16 10:42:49;;;;;;;1.55;0.20;;;;;;;18.11;76.88;98807.44;5071814;28;20135;-43
2023/03/16 10:45:24;;;;;;;0.30;0.10;;;;;;;18.62;75.89;98813.22;5071387;28;20059;-43
2023/03/16 10:47:50;;;;;;;2.92;0.60;;;;;;;19.14;72.73;98824.03;5071177;28;20040;-43
2023/03/16 10:50:24;;;;;;;0.15;0.10;;;;;;;18.62;72.96;98814.00;5071188;28;20052;-45
2023/03/16 10:52:52;;;;;;;3.75;0.20;;;;;;;18.22;74.75;98816.31;5066575;28;20049;-43
2023/03/16 10:55:23;;;;;;;2.55;0.25;;;;;;;17.99;74.41;98818.59;5071196;28;20056;-43
2023/03/16 10:57:53;;;;;;;0.50;0.10;;;;;;;17.90;74.70;98821.22;5071375;28;20098;-46
2023/03/16 11:00:35;;;;;;;0.55;0.10;;;;;;;17.84;73.83;98825.81;5071338;28;20051;-44
2023/03/16 11:03:24;;;;;;;0.10;0.00;;;;;;;17.15;75.14;98811.13;5070839;28;20052;-44
2023/03/16 11:05:59;;;;;;;1.60;0.17;;;;;;;17.32;74.97;98809.13;5071057;28;20049;-43
2023/03/16 11:08:30;;;;;;;0.10;0.00;;;;;;;18.03;72.34;98817.25;5061088;28;20068;-49
2023/03/16 11:11:07;;;;;;;0.47;0.10;;;;;;;18.13;70.72;98821.00;5044756;28;20070;-44
2023/03/16 11:13:36;;;;;;;0.10;0.00;;;;;;;17.29;71.92;98824.00;5057388;28;20424;-43
2023/03/16 11:16:12;;;;;;;0.10;0.00;;;;;;;16.81;74.11;98816.34;5069824;28;20119;-44
2023/03/16 11:18:46;;;;;;;0.20;0.00;;;;;;;16.85;74.06;98812.22;5070955;28;20040;-52
2023/03/16 11:21:24;;;;;;;0.10;0.10;;;;;;;16.65;74.35;98810.72;5071129;28;20044;-43
2023/03/16 11:23:54;;;;;;;0.10;0.08;;;;;;;16.19;75.30;98811.63;5070753;28;20068;-44
2023/03/16 11:26:32;;;;;;;0.40;0.10;;;;;;;15.71;76.76;98806.59;5066265;28;20051;-43
2023/03/16 11:29:08;;;;;;;0.00;0.00;;;;;;;15.35;77.64;98813.97;5070479;28;20048;-46
2023/03/16 11:31:44;;;;;;;0.10;0.10;;;;;;;15.09;78.32;98808.00;5070365;28;20124;-43
2023/03/16 11:34:16;;;;;;;1.08;0.10;;;;;;;14.87;79.01;98812.34;5070596;28;20486;-43
2023/03/16 11:36:52;;;;;;;0.05;0.05;;;;;;;14.69;79.34;98806.25;5070899;28;20069;-50
2023/03/16 11:39:41;;;;;;;1.67;0.10;;;;;;;14.56;79.92;98816.38;5070810;28;20143;-43
2023/03/16 11:42:22;;;;;;;0.03;0.03;;;;;;;14.45;80.43;98812.94;5043832;28;20049;-51